createdAt,value
2022-09-09T00:00:17.958Z,13.73
2022-09-09T00:02:55.483Z,14.53
2022-09-09T00:05:33.591Z,15.87
2022-09-09T00:08:05.076Z,15.97
2022-09-09T00:10:37.339Z,16.77
2022-09-09T00:13:18.188Z,16.67
2022-09-09T00:15:57.975Z,17.70
2022-09-09T00:18:31.164Z,16.67
2022-09-09T00:21:07.159Z,16.13
2022-09-09T00:23:38.673Z,16.30
2022-09-09T00:26:13.248Z,16.10
2022-09-09T00:28:48.101Z,19.77
2022-09-09T00:31:20.677Z,17.80
2022-09-09T00:33:50.146Z,17.90
2022-09-09T00:36:23.781Z,17.13
2022-09-09T00:38:54.850Z,17.27
2022-09-09T00:41:28.346Z,17.17
2022-09-09T00:44:04.880Z,18.40
2022-09-09T00:46:50.622Z,17.60
2022-09-09T00:49:28.696Z,18.60
2022-09-09T00:52:07.915Z,17.27
2022-09-09T00:54:46.605Z,18.67
2022-09-09T00:57:25.328Z,19.37
2022-09-09T00:59:59.952Z,18.70
2022-09-09T01:02:30.883Z,20.83
2022-09-09T01:05:07.671Z,19.57
2022-09-09T01:07:35.818Z,20.60
2022-09-09T01:10:09.282Z,20.70
2022-09-09T01:12:44.678Z,19.20
2022-09-09T01:15:25.661Z,19.97
2022-09-09T01:18:02.280Z,18.83
2022-09-09T01:20:40.401Z,21.40
2022-09-09T01:23:28.406Z,21.63
2022-09-09T01:26:24.757Z,21.10
2022-09-09T01:28:55.529Z,19.20
2022-09-09T01:31:38.632Z,20.77
2022-09-09T01:34:12.313Z,20.20
2022-09-09T01:36:45.283Z,19.67
2022-09-09T01:39:15.010Z,20.93
2022-09-09T01:41:46.010Z,21.20
2022-09-09T01:44:15.925Z,21.13
2022-09-09T01:46:46.588Z,19.77
2022-09-09T01:49:20.800Z,19.47
2022-09-09T01:51:51.791Z,18.87
2022-09-09T01:54:24.501Z,19.27
2022-09-09T01:57:13.827Z,19.13
2022-09-09T01:59:55.574Z,17.70
2022-09-09T02:02:28.648Z,18.60
2022-09-09T02:05:17.807Z,16.10
2022-09-09T02:07:50.226Z,18.77
2022-09-09T02:10:35.722Z,18.70
2022-09-09T02:13:21.678Z,18.90
2022-09-09T02:15:55.060Z,18.57
2022-09-09T02:18:28.967Z,19.97
2022-09-09T02:20:58.739Z,17.83
2022-09-09T02:23:28.349Z,19.20
2022-09-09T02:25:59.833Z,19.10
2022-09-09T02:28:33.892Z,16.70
2022-09-09T02:31:03.073Z,18.70
2022-09-09T02:33:42.101Z,16.77
2022-09-09T02:36:11.986Z,18.53
2022-09-09T02:38:47.189Z,16.63
2022-09-09T02:41:18.213Z,17.57
2022-09-09T02:43:47.891Z,17.37
2022-09-09T02:46:30.943Z,16.90
2022-09-09T02:49:06.881Z,16.07
2022-09-09T02:51:47.580Z,16.80
2022-09-09T02:54:24.863Z,15.77
2022-09-09T02:56:57.226Z,14.33
2022-09-09T02:59:35.232Z,14.80
2022-09-09T03:02:03.720Z,15.87
2022-09-09T03:04:33.126Z,15.50
2022-09-09T03:07:01.617Z,16.63
2022-09-09T03:09:29.640Z,17.00
2022-09-09T03:11:58.320Z,18.90
2022-09-09T03:14:28.429Z,17.17
2022-09-09T03:17:01.705Z,15.90
2022-09-09T03:19:32.281Z,20.30
2022-09-09T03:22:01.386Z,16.97
2022-09-09T03:24:31.551Z,17.53
2022-09-09T03:26:59.907Z,19.67
2022-09-09T03:29:28.788Z,16.00
2022-09-09T03:32:01.187Z,16.27
2022-09-09T03:34:29.718Z,14.80
2022-09-09T03:37:00.269Z,13.83
2022-09-09T03:39:30.183Z,14.40
2022-09-09T03:41:58.607Z,15.27
2022-09-09T03:44:27.789Z,15.00
2022-09-09T03:46:56.798Z,14.50
2022-09-09T03:49:27.115Z,15.40
2022-09-09T03:51:57.401Z,15.80
2022-09-09T03:54:26.040Z,15.07
2022-09-09T03:56:54.279Z,15.47
2022-09-09T03:59:24.635Z,15.17
2022-09-09T04:01:53.080Z,14.43
2022-09-09T04:04:21.561Z,15.13
2022-09-09T04:06:51.874Z,14.00
2022-09-09T04:09:20.006Z,13.47
2022-09-09T04:11:50.510Z,15.00
2022-09-09T04:14:18.625Z,13.10
2022-09-09T04:16:46.932Z,13.10
2022-09-09T04:19:15.678Z,15.07
2022-09-09T04:21:45.786Z,14.50
2022-09-09T04:24:17.257Z,13.47
2022-09-09T04:26:46.526Z,13.27
2022-09-09T04:29:15.086Z,13.77
2022-09-09T04:31:44.051Z,13.97
2022-09-09T04:34:12.377Z,12.70
2022-09-09T04:36:41.315Z,13.00
2022-09-09T04:39:10.693Z,13.83
2022-09-09T04:41:40.185Z,13.67
2022-09-09T04:44:08.323Z,13.43
2022-09-09T04:46:36.596Z,13.57
2022-09-09T04:49:06.317Z,13.20
2022-09-09T04:51:35.573Z,13.70
2022-09-09T04:54:03.773Z,13.57
2022-09-09T04:56:32.724Z,11.20
2022-09-09T04:59:04.261Z,12.93
2022-09-09T05:01:42.515Z,12.40
2022-09-09T05:04:11.276Z,12.33
2022-09-09T05:06:39.398Z,12.40
2022-09-09T05:09:07.593Z,11.47
2022-09-09T05:11:37.621Z,12.37
2022-09-09T05:14:20.009Z,13.30
2022-09-09T05:16:48.192Z,11.30
2022-09-09T05:19:20.034Z,12.30
2022-09-09T05:21:52.076Z,11.93
2022-09-09T05:24:25.283Z,11.37
2022-09-09T05:26:59.094Z,11.23
2022-09-09T05:29:28.795Z,11.43
2022-09-09T05:31:58.457Z,11.57
2022-09-09T05:34:26.693Z,11.47
2022-09-09T05:36:55.333Z,11.00
2022-09-09T05:39:25.755Z,10.77
2022-09-09T05:41:53.909Z,10.63
2022-09-09T05:44:24.337Z,9.90
2022-09-09T05:46:54.234Z,11.37
2022-09-09T05:49:23.901Z,11.20
2022-09-09T05:51:52.572Z,12.33
2022-09-09T05:54:22.383Z,13.10
2022-09-09T05:56:54.590Z,14.43
2022-09-09T05:59:24.202Z,13.70
2022-09-09T06:01:55.814Z,13.70
2022-09-09T06:04:32.365Z,11.50
2022-09-09T06:07:02.515Z,11.50
2022-09-09T06:09:31.440Z,11.70
2022-09-09T06:11:59.723Z,12.50
2022-09-09T06:14:28.990Z,12.17
2022-09-09T06:17:01.500Z,12.00
2022-09-09T06:19:31.908Z,11.37
2022-09-09T06:22:01.195Z,10.97
2022-09-09T06:24:33.901Z,11.40
2022-09-09T06:27:03.323Z,13.13
2022-09-09T06:29:35.448Z,10.37
2022-09-09T06:32:05.922Z,10.43
2022-09-09T06:34:34.041Z,10.47
2022-09-09T06:37:02.549Z,11.07
2022-09-09T06:39:39.615Z,9.40
2022-09-09T06:42:09.881Z,9.90
2022-09-09T06:44:56.741Z,10.70
2022-09-09T06:47:46.608Z,8.97
2022-09-09T06:50:16.070Z,9.10
2022-09-09T06:52:44.389Z,10.53
2022-09-09T06:55:14.062Z,8.40
2022-09-09T06:57:42.724Z,8.10
2022-09-09T07:00:16.282Z,8.67
2022-09-09T07:02:45.898Z,7.77
2022-09-09T07:05:17.154Z,8.60
2022-09-09T07:07:47.406Z,9.47
2022-09-09T07:10:18.290Z,7.70
2022-09-09T07:12:52.646Z,8.80
2022-09-09T07:15:23.601Z,9.00
2022-09-09T07:17:51.785Z,8.60
2022-09-09T07:20:21.240Z,8.07
2022-09-09T07:22:49.642Z,9.67
2022-09-09T07:25:19.094Z,8.60
2022-09-09T07:27:48.356Z,8.43
2022-09-09T07:30:22.953Z,7.57
2022-09-09T07:32:54.246Z,8.57
2022-09-09T07:35:23.730Z,8.30
2022-09-09T07:37:51.883Z,9.10
2022-09-09T07:40:23.020Z,7.67
2022-09-09T07:42:52.132Z,8.10
2022-09-09T07:45:20.262Z,7.97
2022-09-09T07:47:49.183Z,7.70
2022-09-09T07:50:17.678Z,7.23
2022-09-09T07:52:47.898Z,10.00
2022-09-09T07:55:16.438Z,7.70
2022-09-09T07:57:44.982Z,6.73
2022-09-09T08:00:15.805Z,6.17
2022-09-09T08:02:49.559Z,6.10
2022-09-09T08:05:18.971Z,6.27
2022-09-09T08:07:49.168Z,5.80
2022-09-09T08:10:17.418Z,5.60
2022-09-09T08:13:07.758Z,5.47
2022-09-09T08:15:36.090Z,4.97
2022-09-09T08:18:06.717Z,5.80
2022-09-09T08:20:37.432Z,5.30
2022-09-09T08:23:07.074Z,6.07
2022-09-09T08:25:36.562Z,5.07
2022-09-09T08:28:05.286Z,5.13
2022-09-09T08:30:33.640Z,5.90
2022-09-09T08:33:02.258Z,7.80
2022-09-09T08:35:33.498Z,7.40
2022-09-09T08:38:04.650Z,8.07
2022-09-09T08:40:44.889Z,7.63
2022-09-09T08:43:13.799Z,7.50
2022-09-09T08:45:56.488Z,6.60
2022-09-09T08:48:45.731Z,6.80
2022-09-09T08:51:15.388Z,6.90
2022-09-09T08:53:50.276Z,7.50
2022-09-09T08:56:23.500Z,7.10
2022-09-09T08:58:57.583Z,8.03
2022-09-09T09:01:55.167Z,7.93
2022-09-09T09:04:54.920Z,5.80
2022-09-09T09:07:35.799Z,6.07
2022-09-09T09:10:37.482Z,4.73
2022-09-09T09:13:05.833Z,4.63
2022-09-09T09:15:39.676Z,4.10
2022-09-09T09:18:15.003Z,4.23
2022-09-09T09:20:58.064Z,3.53
2022-09-09T09:23:31.960Z,3.83
2022-09-09T09:26:02.862Z,4.10
2022-09-09T09:28:35.026Z,4.43
2022-09-09T09:31:12.936Z,3.90
2022-09-09T09:33:50.699Z,4.10
2022-09-09T09:36:21.435Z,4.83
2022-09-09T09:41:48.257Z,4.30
2022-09-09T09:44:28.303Z,3.53
2022-09-09T09:47:09.427Z,3.87
2022-09-09T09:49:38.370Z,3.40
2022-09-09T09:52:08.553Z,3.87
2022-09-09T09:54:41.359Z,3.70
2022-09-09T09:57:12.093Z,4.20
2022-09-09T09:59:43.741Z,4.07
2022-09-09T10:02:28.181Z,3.73
2022-09-09T10:05:07.778Z,4.07
2022-09-09T10:07:38.397Z,4.30
2022-09-09T10:10:08.287Z,4.70
2022-09-09T10:12:47.652Z,4.23
2022-09-09T10:15:33.273Z,4.43
2022-09-09T10:18:15.906Z,4.87
2022-09-09T10:20:51.993Z,5.47
2022-09-09T10:23:34.559Z,5.00
2022-09-09T10:26:18.481Z,5.20
2022-09-09T10:29:04.054Z,5.10
2022-09-09T10:31:43.401Z,5.33
2022-09-09T10:34:23.010Z,5.77
2022-09-09T10:36:52.475Z,5.13
2022-09-09T10:39:42.152Z,5.50
2022-09-09T10:42:14.738Z,4.83
2022-09-09T10:45:01.594Z,4.67
2022-09-09T10:47:59.814Z,4.30
2022-09-09T10:51:03.906Z,4.30
2022-09-09T10:53:46.665Z,4.30
2022-09-09T10:56:20.835Z,5.27
2022-09-09T10:58:53.301Z,4.07
2022-09-09T11:01:26.329Z,4.00
2022-09-09T11:04:00.656Z,3.57
2022-09-09T11:06:34.677Z,4.07
2022-09-09T11:09:04.570Z,4.10
2022-09-09T11:11:38.468Z,3.93
2022-09-09T11:14:14.901Z,3.70
2022-09-09T11:16:49.202Z,4.50
2022-09-09T11:19:26.465Z,4.50
2022-09-09T11:21:55.778Z,5.23
2022-09-09T11:24:30.196Z,5.03
2022-09-09T11:27:03.906Z,4.37
2022-09-09T11:30:03.532Z,5.27
2022-09-09T11:33:06.561Z,5.00
2022-09-09T11:35:47.723Z,4.80
2022-09-09T11:38:23.509Z,5.67
2022-09-09T11:41:00.387Z,8.97
2022-09-09T11:43:33.093Z,5.90
2022-09-09T11:46:04.538Z,5.30
2022-09-09T11:48:36.549Z,6.07
2022-09-09T11:51:13.274Z,7.13
2022-09-09T11:53:53.002Z,7.03
2022-09-09T11:56:32.906Z,6.40
2022-09-09T11:59:04.662Z,6.87
2022-09-09T12:01:38.007Z,6.27
2022-09-09T12:04:38.882Z,6.20
2022-09-09T12:07:28.887Z,5.00
2022-09-09T12:10:00.604Z,11.80
2022-09-09T12:12:31.881Z,4.03
2022-09-09T12:15:22.493Z,3.07
2022-09-09T12:17:52.862Z,2.40
2022-09-09T12:20:23.031Z,3.20
2022-09-09T12:23:11.612Z,2.23
2022-09-09T12:25:58.740Z,2.30
2022-09-09T12:28:41.747Z,2.30
2022-09-09T12:31:18.983Z,2.40
2022-09-09T12:33:49.069Z,2.27
2022-09-09T12:36:20.734Z,2.20
2022-09-09T12:38:51.593Z,2.70
2022-09-09T12:41:24.494Z,2.87
2022-09-09T12:43:53.724Z,2.73
2022-09-09T12:46:34.242Z,2.50
2022-09-09T12:49:03.215Z,3.60
2022-09-09T12:51:34.273Z,2.90
2022-09-09T12:54:04.268Z,3.53
2022-09-09T12:56:34.424Z,2.57
2022-09-09T12:59:02.763Z,2.40
2022-09-09T13:01:33.350Z,2.33
2022-09-09T13:04:02.647Z,2.83
2022-09-09T13:06:33.540Z,2.07
2022-09-09T13:09:04.040Z,1.90
2022-09-09T13:11:39.248Z,2.00
2022-09-09T13:14:07.952Z,2.40
2022-09-09T13:16:42.556Z,2.40
2022-09-09T13:19:17.911Z,2.60
2022-09-09T13:21:46.090Z,2.70
2022-09-09T13:24:30.628Z,3.70
2022-09-09T13:27:00.440Z,3.47
2022-09-09T13:29:28.586Z,3.60
2022-09-09T13:32:07.151Z,3.80
2022-09-09T13:34:37.301Z,3.40
2022-09-09T13:37:07.829Z,3.50
2022-09-09T13:39:38.935Z,5.03
2022-09-09T13:42:07.961Z,6.40
2022-09-09T13:44:39.092Z,5.70
2022-09-09T13:47:18.222Z,5.00
2022-09-09T13:49:46.672Z,4.40
2022-09-09T13:52:16.520Z,5.50
2022-09-09T13:54:50.208Z,4.40
2022-09-09T13:57:19.908Z,4.43
2022-09-09T14:00:04.221Z,6.13
2022-09-09T14:02:33.152Z,12.33
2022-09-09T14:05:01.314Z,5.73
2022-09-09T14:07:30.005Z,6.00
2022-09-09T14:10:01.103Z,6.00
2022-09-09T14:12:29.602Z,7.00
2022-09-09T14:14:57.733Z,6.20
2022-09-09T14:17:26.032Z,6.67
2022-09-09T14:19:54.158Z,6.40
2022-09-09T14:22:22.696Z,6.07
2022-09-09T14:24:51.286Z,6.77
2022-09-09T14:27:20.825Z,6.90
2022-09-09T14:29:49.003Z,6.23
2022-09-09T14:32:17.125Z,7.30
2022-09-09T14:34:45.198Z,7.27
2022-09-09T14:37:13.791Z,8.20
2022-09-09T14:39:41.877Z,8.10
2022-09-09T14:42:12.014Z,7.60
2022-09-09T14:44:42.599Z,7.20
2022-09-09T14:47:11.054Z,6.40
2022-09-09T14:49:41.525Z,7.40
2022-09-09T14:52:12.495Z,7.03
2022-09-09T14:54:41.161Z,7.63
2022-09-09T14:57:09.349Z,7.97
2022-09-09T14:59:37.475Z,7.37
2022-09-09T15:02:07.205Z,8.50
2022-09-09T15:04:35.570Z,8.97
2022-09-09T15:07:04.052Z,10.10
2022-09-09T15:09:32.142Z,10.00
2022-09-09T15:12:00.284Z,10.80
2022-09-09T15:14:28.818Z,10.33
2022-09-09T15:16:56.894Z,9.80
2022-09-09T15:19:26.365Z,11.23
2022-09-09T15:21:55.421Z,10.40
2022-09-09T15:24:24.149Z,9.97
2022-09-09T15:26:52.259Z,8.50
2022-09-09T15:29:20.666Z,7.70
2022-09-09T15:31:48.824Z,7.20
2022-09-09T15:34:16.997Z,7.73
2022-09-09T15:36:48.091Z,7.10
2022-09-09T15:39:17.918Z,8.20
2022-09-09T15:41:47.766Z,7.60
2022-09-09T15:44:16.573Z,7.80
2022-09-09T15:46:46.429Z,7.90
2022-09-09T15:49:16.508Z,6.97
2022-09-09T15:51:48.005Z,7.30
2022-09-09T15:54:18.939Z,6.70
2022-09-09T15:56:49.699Z,6.50
2022-09-09T15:59:18.153Z,7.07
2022-09-09T16:01:46.459Z,6.60
2022-09-09T16:04:16.631Z,6.90
2022-09-09T16:06:45.371Z,7.23
2022-09-09T16:09:14.897Z,7.13
2022-09-09T16:11:43.107Z,5.93
2022-09-09T16:14:12.065Z,6.00
2022-09-09T16:16:40.291Z,6.20
2022-09-09T16:19:10.561Z,5.70
2022-09-09T16:21:41.697Z,5.80
2022-09-09T16:24:14.562Z,5.17
2022-09-09T16:26:46.239Z,5.50
2022-09-09T16:29:15.621Z,6.00
2022-09-09T16:31:44.054Z,5.90
2022-09-09T16:34:12.738Z,6.40
2022-09-09T16:36:42.414Z,6.43
2022-09-09T16:39:13.479Z,5.77
2022-09-09T16:41:44.733Z,5.20
2022-09-09T16:44:14.802Z,5.20
2022-09-09T16:46:44.366Z,12.03
2022-09-09T16:49:15.733Z,4.70
2022-09-09T16:51:45.792Z,5.50
2022-09-09T16:54:14.797Z,13.73
2022-09-09T16:56:46.818Z,8.93
2022-09-09T16:59:16.662Z,6.03
2022-09-09T17:01:47.304Z,5.40
2022-09-09T17:04:21.640Z,5.83
2022-09-09T17:06:51.364Z,7.93
2022-09-09T17:09:20.598Z,7.43
2022-09-09T17:11:51.725Z,4.57
2022-09-09T17:14:22.415Z,4.30
2022-09-09T17:16:50.825Z,3.30
2022-09-09T17:19:19.336Z,3.43
2022-09-09T17:24:39.369Z,3.70
2022-09-09T17:27:09.810Z,4.13
2022-09-09T17:29:38.105Z,4.37
2022-09-09T17:32:08.067Z,4.37
2022-09-09T17:34:37.141Z,4.93
2022-09-09T17:37:06.958Z,4.40
2022-09-09T17:39:35.336Z,4.53
2022-09-09T17:42:03.597Z,5.60
2022-09-09T17:44:34.280Z,8.17
2022-09-09T17:47:04.925Z,6.77
2022-09-09T17:49:33.050Z,6.60
2022-09-09T17:52:01.174Z,5.10
2022-09-09T17:54:29.252Z,5.50
2022-09-09T17:56:58.569Z,5.20
2022-09-09T17:59:26.830Z,4.47
2022-09-09T18:01:56.612Z,5.60
2022-09-09T18:04:24.860Z,6.17
2022-09-09T18:06:54.551Z,6.07
2022-09-09T18:09:25.238Z,10.00
2022-09-09T18:11:56.486Z,6.53
2022-09-09T18:14:27.423Z,6.47
2022-09-09T18:16:57.010Z,7.50
2022-09-09T18:19:26.897Z,7.30
2022-09-09T18:21:57.579Z,8.83
2022-09-09T18:24:28.551Z,7.90
2022-09-09T18:26:57.015Z,8.50
2022-09-09T18:29:26.391Z,9.63
2022-09-09T18:31:57.091Z,11.90
2022-09-09T18:34:28.486Z,9.23
2022-09-09T18:36:56.880Z,9.53
2022-09-09T18:39:27.502Z,7.77
2022-09-09T18:41:59.578Z,8.73
2022-09-09T18:44:30.382Z,8.60
2022-09-09T18:47:00.379Z,8.70
2022-09-09T18:49:28.795Z,8.30
2022-09-09T18:51:57.935Z,8.50
2022-09-09T18:54:29.641Z,8.60
2022-09-09T18:56:58.074Z,8.37
2022-09-09T18:59:26.113Z,9.60
2022-09-09T19:01:55.117Z,9.43
2022-09-09T19:04:27.246Z,9.20
2022-09-09T19:06:57.976Z,8.37
2022-09-09T19:09:28.876Z,9.00
2022-09-09T19:11:57.070Z,8.50
2022-09-09T19:14:25.304Z,7.90
2022-09-09T19:16:53.686Z,8.20
2022-09-09T19:19:25.660Z,8.03
2022-09-09T19:21:55.213Z,8.67
2022-09-09T19:24:24.900Z,9.00
2022-09-09T19:26:54.548Z,8.17
2022-09-09T19:29:24.600Z,8.60
2022-09-09T19:32:36.391Z,7.30
2022-09-09T19:34:44.493Z,7.37
2022-09-09T19:37:17.695Z,7.70
2022-09-09T19:39:46.704Z,7.30
2022-09-09T19:42:17.665Z,8.10
2022-09-09T19:44:46.426Z,9.13
2022-09-09T19:47:15.358Z,9.50
2022-09-09T19:49:47.406Z,8.80
2022-09-09T19:52:16.919Z,8.40
2022-09-09T19:54:45.184Z,7.87
2022-09-09T19:57:13.266Z,7.83
2022-09-09T19:59:41.272Z,7.80
2022-09-09T20:02:11.673Z,8.37
2022-09-09T20:04:40.269Z,7.90
2022-09-09T20:07:09.934Z,7.77
2022-09-09T20:09:38.043Z,8.00
2022-09-09T20:12:07.176Z,7.93
2022-09-09T20:14:39.356Z,8.73
2022-09-09T20:17:08.168Z,8.87
2022-09-09T20:19:36.229Z,8.50
2022-09-09T20:22:04.438Z,8.23
2022-09-09T20:24:34.121Z,7.80
2022-09-09T20:27:02.236Z,7.80
2022-09-09T20:29:30.323Z,8.40
2022-09-09T20:31:58.776Z,8.40
2022-09-09T20:34:28.129Z,8.23
2022-09-09T20:36:59.032Z,9.77
2022-09-09T20:39:27.829Z,7.50
2022-09-09T20:41:58.234Z,7.30
2022-09-09T20:44:26.320Z,8.10
2022-09-09T20:46:57.054Z,7.50
2022-09-09T20:49:25.641Z,7.00
2022-09-09T20:51:55.095Z,7.87
2022-09-09T20:54:25.987Z,7.57
2022-09-09T20:56:55.215Z,7.20
2022-09-09T20:59:29.201Z,10.00
2022-09-09T21:01:58.345Z,8.60
2022-09-09T21:04:27.414Z,7.93
2022-09-09T21:06:55.498Z,7.93
2022-09-09T21:09:24.482Z,7.73
2022-09-09T21:11:53.450Z,6.97
2022-09-09T21:14:21.593Z,8.30
2022-09-09T21:16:51.084Z,8.70
2022-09-09T21:19:19.114Z,8.40
2022-09-09T21:21:47.749Z,8.37
2022-09-09T21:24:15.987Z,8.97
2022-09-09T21:26:44.072Z,8.07
2022-09-09T21:29:13.053Z,8.60
2022-09-09T21:31:41.120Z,8.67
2022-09-09T21:34:10.672Z,8.47
2022-09-09T21:36:38.795Z,7.90
2022-09-09T21:39:06.870Z,8.10
2022-09-09T21:41:35.291Z,8.73
2022-09-09T21:44:04.179Z,8.40
2022-09-09T21:46:32.493Z,8.60
2022-09-09T21:49:03.418Z,8.43
2022-09-09T21:51:32.796Z,7.53
2022-09-09T21:54:00.870Z,9.10
2022-09-09T21:56:29.034Z,9.10
2022-09-09T21:58:57.883Z,9.03
2022-09-09T22:01:26.855Z,9.63
2022-09-09T22:03:55.307Z,9.40
2022-09-09T22:06:23.394Z,9.50
2022-09-09T22:08:52.845Z,9.30
2022-09-09T22:11:23.255Z,8.70
2022-09-09T22:13:53.310Z,9.67
2022-09-09T22:16:23.923Z,10.07
2022-09-09T22:18:53.935Z,9.40
2022-09-09T22:21:22.796Z,9.13
2022-09-09T22:23:57.033Z,8.10
2022-09-09T22:26:26.456Z,9.00
2022-09-09T22:28:54.544Z,8.97
2022-09-09T22:31:23.629Z,9.27
2022-09-09T22:33:52.150Z,9.20
2022-09-09T22:36:21.030Z,8.60
2022-09-09T22:38:49.479Z,9.20
2022-09-09T22:41:19.893Z,8.20
2022-09-09T22:43:48.640Z,9.30
2022-09-09T22:46:17.269Z,9.13
2022-09-09T22:48:45.359Z,8.63
2022-09-09T22:51:15.089Z,9.00
2022-09-09T22:53:44.551Z,8.57
2022-09-09T22:56:17.089Z,8.90
2022-09-09T22:58:47.397Z,8.77
2022-09-09T23:01:19.073Z,8.60
2022-09-09T23:03:48.084Z,8.83
2022-09-09T23:06:21.974Z,8.30
2022-09-09T23:08:53.709Z,8.63
2022-09-09T23:11:22.122Z,8.70
2022-09-09T23:13:53.524Z,8.63
2022-09-09T23:16:24.334Z,8.70
2022-09-09T23:18:53.593Z,8.63
2022-09-09T23:21:22.885Z,8.60
2022-09-09T23:23:54.370Z,8.37
2022-09-09T23:26:24.392Z,8.20
2022-09-09T23:28:58.295Z,10.07
2022-09-09T23:31:29.215Z,9.23
2022-09-09T23:33:58.533Z,7.97
2022-09-09T23:36:29.720Z,8.87
2022-09-09T23:38:59.143Z,7.90
2022-09-09T23:41:27.689Z,8.80
2022-09-09T23:43:57.063Z,8.10
2022-09-09T23:46:27.301Z,7.47
2022-09-09T23:48:57.404Z,7.33
2022-09-09T23:51:30.280Z,8.10
2022-09-09T23:54:02.827Z,8.60
2022-09-09T23:56:32.743Z,7.50
2022-09-09T23:59:02.952Z,8.43
